createdAt,value
2024-02-17T00:00:56.758Z,351.00
2024-02-17T00:01:57.771Z,356.00
2024-02-17T00:02:57.757Z,356.00
2024-02-17T00:03:58.300Z,359.00
2024-02-17T00:04:59.274Z,360.00
2024-02-17T00:06:00.961Z,361.00
2024-02-17T00:07:01.812Z,360.00
2024-02-17T00:08:01.727Z,358.00
2024-02-17T00:09:02.573Z,357.00
2024-02-17T00:10:03.454Z,359.00
2024-02-17T00:11:04.364Z,354.00
2024-02-17T00:12:05.439Z,354.00
2024-02-17T00:13:07.109Z,353.00
2024-02-17T00:14:07.802Z,353.00
2024-02-17T00:15:08.438Z,356.00
2024-02-17T00:16:08.392Z,357.00
2024-02-17T00:17:09.309Z,359.00
2024-02-17T00:18:10.518Z,362.00
2024-02-17T00:19:11.075Z,363.00
2024-02-17T00:20:12.303Z,363.00
2024-02-17T00:21:12.765Z,360.00
2024-02-17T00:22:13.793Z,360.00
2024-02-17T00:23:14.206Z,358.00
2024-02-17T00:24:15.136Z,356.00
2024-02-17T00:25:16.012Z,355.00
2024-02-17T00:26:17.822Z,357.00
2024-02-17T00:27:17.725Z,355.00
2024-02-17T00:28:19.308Z,356.00
2024-02-17T00:29:19.206Z,358.00
2024-02-17T00:30:20.095Z,358.00
2024-02-17T00:31:21.019Z,356.00
2024-02-17T00:32:21.950Z,354.00
2024-02-17T00:33:23.807Z,354.00
2024-02-17T00:34:24.325Z,355.00
2024-02-17T00:35:24.272Z,353.00
2024-02-17T00:36:25.215Z,352.00
2024-02-17T00:37:26.122Z,352.00
2024-02-17T00:38:27.037Z,352.00
2024-02-17T00:39:28.861Z,351.00
2024-02-17T00:40:30.318Z,351.00
2024-02-17T00:41:29.747Z,351.00
2024-02-17T00:42:30.723Z,351.00
2024-02-17T00:43:31.612Z,351.00
2024-02-17T00:44:32.539Z,351.00
2024-02-17T00:45:33.518Z,353.00
2024-02-17T00:46:34.402Z,354.00
2024-02-17T00:47:35.331Z,350.00
2024-02-17T00:48:36.372Z,354.00
2024-02-17T00:49:36.997Z,353.00
2024-02-17T00:50:37.438Z,353.00
2024-02-17T00:51:38.369Z,354.00
2024-02-17T00:52:39.800Z,355.00
2024-02-17T00:53:40.185Z,353.00
2024-02-17T00:54:42.823Z,356.00
2024-02-17T00:55:41.695Z,354.00
2024-02-17T00:56:42.606Z,357.00
2024-02-17T00:57:43.528Z,359.00
2024-02-17T00:58:46.328Z,354.00
2024-02-17T00:59:46.848Z,355.00
2024-02-17T01:00:45.801Z,351.00
2024-02-17T01:01:48.149Z,353.00
2024-02-17T01:02:47.782Z,355.00
2024-02-17T01:03:49.025Z,355.00
2024-02-17T01:04:49.260Z,354.00
2024-02-17T01:05:49.735Z,353.00
2024-02-17T01:06:51.436Z,355.00
2024-02-17T01:07:51.383Z,350.00
2024-02-17T01:08:52.311Z,350.00
2024-02-17T01:09:53.277Z,347.00
2024-02-17T01:10:54.810Z,344.00
2024-02-17T01:11:54.698Z,344.00
2024-02-17T01:12:56.288Z,347.00
2024-02-17T01:13:56.795Z,349.00
2024-02-17T01:14:58.338Z,352.00
2024-02-17T01:15:57.219Z,357.00
2024-02-17T01:16:58.190Z,353.00
2024-02-17T01:17:59.841Z,355.00
2024-02-17T01:18:59.902Z,357.00
2024-02-17T01:20:00.413Z,357.00
2024-02-17T01:21:00.815Z,356.00
2024-02-17T01:22:01.748Z,359.00
2024-02-17T01:23:02.691Z,362.00
2024-02-17T01:24:05.341Z,363.00
2024-02-17T01:25:04.795Z,363.00
2024-02-17T01:26:06.851Z,360.00
2024-02-17T01:27:05.854Z,357.00
2024-02-17T01:28:06.772Z,359.00
2024-02-17T01:29:07.666Z,356.00
2024-02-17T01:30:08.647Z,354.00
2024-02-17T01:31:09.528Z,354.00
2024-02-17T01:32:11.293Z,351.00
2024-02-17T01:33:11.279Z,350.00
2024-02-17T01:34:12.392Z,353.00
2024-02-17T01:35:12.369Z,354.00
2024-02-17T01:36:13.253Z,356.00
2024-02-17T01:37:14.174Z,358.00
2024-02-17T01:38:15.071Z,357.00
2024-02-17T01:39:16.822Z,357.00
2024-02-17T01:40:16.718Z,361.00
2024-02-17T01:41:17.798Z,361.00
2024-02-17T01:42:18.820Z,360.00
2024-02-17T01:43:18.718Z,361.00
2024-02-17T01:44:19.622Z,358.00
2024-02-17T01:45:20.568Z,355.00
2024-02-17T01:46:21.476Z,355.00
2024-02-17T01:47:23.317Z,356.00
2024-02-17T01:48:23.346Z,355.00
2024-02-17T01:49:23.933Z,357.00
2024-02-17T01:50:24.801Z,358.00
2024-02-17T01:51:25.634Z,358.00
2024-02-17T01:52:26.562Z,356.00
2024-02-17T01:53:27.469Z,357.00
2024-02-17T01:54:28.400Z,353.00
2024-02-17T01:55:29.331Z,353.00
2024-02-17T01:56:30.249Z,352.00
2024-02-17T01:57:31.824Z,355.00
2024-02-17T01:58:31.751Z,357.00
2024-02-17T01:59:32.646Z,356.00
2024-02-17T02:00:34.616Z,356.00
2024-02-17T02:01:34.811Z,352.00
2024-02-17T02:02:34.693Z,352.00
2024-02-17T02:03:37.432Z,357.00
2024-02-17T02:04:36.451Z,356.00
2024-02-17T02:05:36.913Z,356.00
2024-02-17T02:06:37.855Z,361.00
2024-02-17T02:07:39.301Z,362.00
2024-02-17T02:08:39.704Z,361.00
2024-02-17T02:09:40.686Z,360.00
2024-02-17T02:10:42.311Z,363.00
2024-02-17T02:11:42.197Z,365.00
2024-02-17T02:12:43.923Z,365.00
2024-02-17T02:13:43.891Z,366.00
2024-02-17T02:14:44.935Z,367.00
2024-02-17T02:15:53.515Z,368.00
2024-02-17T02:16:47.533Z,372.00
2024-02-17T02:17:48.316Z,371.00
2024-02-17T02:18:48.259Z,372.00
2024-02-17T02:19:49.863Z,365.00
2024-02-17T02:20:51.464Z,366.00
2024-02-17T02:21:51.311Z,366.00
2024-02-17T02:22:51.232Z,365.00
2024-02-17T02:23:52.129Z,366.00
2024-02-17T02:24:53.066Z,368.00
2024-02-17T02:25:54.044Z,364.00
2024-02-17T02:26:54.964Z,361.00
2024-02-17T02:27:55.971Z,364.00
2024-02-17T02:28:56.897Z,364.00
2024-02-17T02:29:58.349Z,359.00
2024-02-17T02:31:00.432Z,360.00
2024-02-17T02:31:59.362Z,361.00
2024-02-17T02:33:00.538Z,360.00
2024-02-17T02:34:01.243Z,358.00
2024-02-17T02:35:01.813Z,361.00
2024-02-17T02:36:02.251Z,361.00
2024-02-17T02:37:03.154Z,361.00
2024-02-17T02:38:04.094Z,362.00
2024-02-17T02:39:05.031Z,363.00
2024-02-17T02:40:05.922Z,364.00
2024-02-17T02:41:06.837Z,365.00
2024-02-17T02:42:08.355Z,363.00
2024-02-17T02:43:08.754Z,364.00
2024-02-17T02:44:09.676Z,363.00
2024-02-17T02:45:10.670Z,359.00
2024-02-17T02:46:11.581Z,353.00
2024-02-17T02:47:14.316Z,358.00
2024-02-17T02:48:14.898Z,360.00
2024-02-17T02:49:13.902Z,362.00
2024-02-17T02:50:14.350Z,360.00
2024-02-17T02:51:15.275Z,360.00
2024-02-17T02:52:16.204Z,360.00
2024-02-17T02:53:17.151Z,354.00
2024-02-17T02:54:18.077Z,354.00
2024-02-17T02:55:20.834Z,356.00
2024-02-17T02:56:19.745Z,356.00
2024-02-17T02:57:21.341Z,353.00
2024-02-17T02:58:21.295Z,353.00
2024-02-17T02:59:22.189Z,355.00
2024-02-17T03:00:23.172Z,357.00
2024-02-17T03:01:26.055Z,357.00
2024-02-17T03:02:25.806Z,356.00
2024-02-17T03:03:25.818Z,356.00
2024-02-17T03:04:26.350Z,356.00
2024-02-17T03:05:26.960Z,357.00
2024-02-17T03:06:27.429Z,357.00
2024-02-17T03:07:29.336Z,357.00
2024-02-17T03:08:29.244Z,359.00
2024-02-17T03:09:30.180Z,359.00
2024-02-17T03:10:31.054Z,358.00
2024-02-17T03:11:32.118Z,359.00
2024-02-17T03:12:33.369Z,359.00
2024-02-17T03:13:33.248Z,361.00
2024-02-17T03:14:34.148Z,364.00
2024-02-17T03:15:35.197Z,365.00
2024-02-17T03:16:35.680Z,366.00
2024-02-17T03:17:36.603Z,366.00
2024-02-17T03:18:37.470Z,365.00
2024-02-17T03:19:38.435Z,361.00
2024-02-17T03:20:39.350Z,360.00
2024-02-17T03:21:42.060Z,361.00
2024-02-17T03:22:41.824Z,362.00
2024-02-17T03:23:41.753Z,363.00
2024-02-17T03:24:43.340Z,362.00
2024-02-17T03:25:44.835Z,359.00
2024-02-17T03:26:45.318Z,345.00
2024-02-17T03:27:44.880Z,354.00
2024-02-17T03:28:45.341Z,357.00
2024-02-17T03:29:47.849Z,359.00
2024-02-17T03:30:46.864Z,357.00
2024-02-17T03:31:47.285Z,361.00
2024-02-17T03:32:48.190Z,360.00
2024-02-17T03:33:49.176Z,358.00
2024-02-17T03:34:49.747Z,359.00
2024-02-17T03:35:50.211Z,357.00
2024-02-17T03:36:51.165Z,359.00
2024-02-17T03:37:52.067Z,359.00
2024-02-17T03:38:52.973Z,361.00
2024-02-17T03:39:56.032Z,364.00
2024-02-17T03:40:55.328Z,363.00
2024-02-17T03:41:56.846Z,359.00
2024-02-17T03:42:55.792Z,360.00
2024-02-17T03:43:56.735Z,361.00
2024-02-17T03:44:57.656Z,357.00
2024-02-17T03:45:58.627Z,360.00
2024-02-17T03:46:59.557Z,363.00
2024-02-17T03:48:00.557Z,363.00
2024-02-17T03:49:01.176Z,361.00
2024-02-17T03:50:02.540Z,363.00
2024-02-17T03:51:03.385Z,364.00
2024-02-17T03:52:04.830Z,363.00
2024-02-17T03:53:04.233Z,362.00
2024-02-17T03:54:05.260Z,359.00
2024-02-17T03:55:05.656Z,360.00
2024-02-17T03:56:07.331Z,361.00
2024-02-17T03:57:07.241Z,364.00
2024-02-17T03:58:08.166Z,364.00
2024-02-17T03:59:09.107Z,367.00
2024-02-17T04:00:10.141Z,365.00
2024-02-17T04:01:10.597Z,363.00
2024-02-17T04:02:11.090Z,362.00
2024-02-17T04:03:12.901Z,360.00
2024-02-17T04:04:12.869Z,359.00
2024-02-17T04:05:13.988Z,361.00
2024-02-17T04:06:14.075Z,358.00
2024-02-17T04:07:14.587Z,356.00
2024-02-17T04:08:16.337Z,356.00
2024-02-17T04:09:16.865Z,359.00
2024-02-17T04:10:16.911Z,360.00
2024-02-17T04:11:19.380Z,361.00
2024-02-17T04:12:18.349Z,360.00
2024-02-17T04:13:19.263Z,357.00
2024-02-17T04:14:20.223Z,361.00
2024-02-17T04:15:21.865Z,358.00
2024-02-17T04:16:23.340Z,363.00
2024-02-17T04:17:22.844Z,360.00
2024-02-17T04:18:23.433Z,362.00
2024-02-17T04:19:25.029Z,361.00
2024-02-17T04:20:24.622Z,358.00
2024-02-17T04:21:25.110Z,355.00
2024-02-17T04:22:26.046Z,354.00
2024-02-17T04:23:26.968Z,355.00
2024-02-17T04:24:27.899Z,354.00
2024-02-17T04:25:28.776Z,357.00
2024-02-17T04:26:30.328Z,356.00
2024-02-17T04:27:30.286Z,357.00
2024-02-17T04:28:31.157Z,352.00
2024-02-17T04:29:32.837Z,355.00
2024-02-17T04:30:32.868Z,356.00
2024-02-17T04:31:33.338Z,356.00
2024-02-17T04:32:34.257Z,355.00
2024-02-17T04:33:36.012Z,353.00
2024-02-17T04:34:36.967Z,351.00
2024-02-17T04:35:36.977Z,351.00
2024-02-17T04:36:37.902Z,354.00
2024-02-17T04:37:38.803Z,354.00
2024-02-17T04:38:41.358Z,355.00
2024-02-17T04:39:40.273Z,355.00
2024-02-17T04:40:41.202Z,357.00
2024-02-17T04:41:42.100Z,358.00
2024-02-17T04:42:43.087Z,358.00
2024-02-17T04:43:43.516Z,353.00
2024-02-17T04:44:44.450Z,356.00
2024-02-17T04:45:45.472Z,362.00
2024-02-17T04:46:45.908Z,349.00
2024-02-17T04:47:46.874Z,352.00
2024-02-17T04:48:48.890Z,354.00
2024-02-17T04:49:47.957Z,356.00
2024-02-17T04:50:48.381Z,359.00
2024-02-17T04:51:49.307Z,359.00
2024-02-17T04:52:50.211Z,360.00
2024-02-17T04:53:51.111Z,360.00
2024-02-17T04:54:52.058Z,363.00
2024-02-17T04:55:52.940Z,360.00
2024-02-17T04:56:54.836Z,360.00
2024-02-17T04:57:54.734Z,361.00
2024-02-17T04:58:55.665Z,363.00
2024-02-17T04:59:56.601Z,359.00
2024-02-17T05:00:58.729Z,359.00
2024-02-17T05:01:58.169Z,361.00
2024-02-17T05:02:59.866Z,365.00
2024-02-17T05:04:01.467Z,363.00
2024-02-17T05:05:00.413Z,360.00
2024-02-17T05:06:01.332Z,359.00
2024-02-17T05:07:02.294Z,358.00
2024-02-17T05:08:03.181Z,359.00
2024-02-17T05:09:04.297Z,358.00
2024-02-17T05:10:04.706Z,355.00
2024-02-17T05:11:05.608Z,356.00
2024-02-17T05:12:06.597Z,359.00
2024-02-17T05:13:08.086Z,359.00
2024-02-17T05:14:09.367Z,361.00
2024-02-17T05:15:08.271Z,360.00
2024-02-17T05:16:09.163Z,359.00
2024-02-17T05:17:10.837Z,354.00
2024-02-17T05:18:10.948Z,353.00
2024-02-17T05:19:11.460Z,354.00
2024-02-17T05:20:12.400Z,358.00
2024-02-17T05:21:13.860Z,362.00
2024-02-17T05:22:14.888Z,357.00
2024-02-17T05:23:14.848Z,358.00
2024-02-17T05:24:15.792Z,359.00
2024-02-17T05:25:16.689Z,358.00
2024-02-17T05:26:18.354Z,359.00
2024-02-17T05:27:18.283Z,357.00
2024-02-17T05:28:19.215Z,359.00
2024-02-17T05:29:20.141Z,361.00
2024-02-17T05:30:22.035Z,363.00
2024-02-17T05:31:21.561Z,367.00
2024-02-17T05:32:24.389Z,369.00
2024-02-17T05:33:23.527Z,367.00
2024-02-17T05:34:24.036Z,368.00
2024-02-17T05:35:24.939Z,366.00
2024-02-17T05:36:25.901Z,367.00
2024-02-17T05:37:26.822Z,369.00
2024-02-17T05:38:28.352Z,368.00
2024-02-17T05:39:28.261Z,368.00
2024-02-17T05:40:29.150Z,367.00
2024-02-17T05:41:31.872Z,365.00
2024-02-17T05:42:32.381Z,367.00
2024-02-17T05:43:33.360Z,367.00
2024-02-17T05:44:32.256Z,369.00
2024-02-17T05:45:33.200Z,365.00
2024-02-17T05:46:34.108Z,364.00
2024-02-17T05:47:35.075Z,366.00
2024-02-17T05:48:35.680Z,364.00
2024-02-17T05:49:36.197Z,365.00
2024-02-17T05:50:36.921Z,366.00
2024-02-17T05:51:37.881Z,360.00
2024-02-17T05:52:38.794Z,363.00
2024-02-17T05:53:39.699Z,364.00
2024-02-17T05:54:41.401Z,363.00
2024-02-17T05:55:41.865Z,360.00
2024-02-17T05:56:42.275Z,363.00
2024-02-17T05:57:43.263Z,365.00
2024-02-17T05:58:44.146Z,364.00
2024-02-17T05:59:45.063Z,365.00
2024-02-17T06:00:46.040Z,364.00
2024-02-17T06:01:46.623Z,363.00
2024-02-17T06:02:46.997Z,362.00
2024-02-17T06:03:48.042Z,364.00
2024-02-17T06:04:50.478Z,364.00
2024-02-17T06:05:49.400Z,364.00
2024-02-17T06:06:50.944Z,363.00
2024-02-17T06:07:50.966Z,362.00
2024-02-17T06:08:51.420Z,360.00
2024-02-17T06:09:52.352Z,365.00
2024-02-17T06:10:53.299Z,364.00
2024-02-17T06:11:54.210Z,365.00
2024-02-17T06:12:55.883Z,367.00
2024-02-17T06:13:57.271Z,365.00
2024-02-17T06:14:56.511Z,367.00
2024-02-17T06:15:57.503Z,366.00
2024-02-17T06:16:58.409Z,366.00
2024-02-17T06:17:59.403Z,364.00
2024-02-17T06:19:00.563Z,364.00
2024-02-17T06:20:01.225Z,368.00
2024-02-17T06:21:01.626Z,368.00
2024-02-17T06:22:05.365Z,365.00
2024-02-17T06:23:03.321Z,365.00
2024-02-17T06:24:06.398Z,367.00
2024-02-17T06:25:05.352Z,366.00
2024-02-17T06:26:07.004Z,363.00
2024-02-17T06:27:05.912Z,361.00
2024-02-17T06:28:06.919Z,363.00
2024-02-17T06:29:08.178Z,359.00
2024-02-17T06:30:08.627Z,363.00
2024-02-17T06:31:09.548Z,361.00
2024-02-17T06:32:10.487Z,358.00
2024-02-17T06:33:11.525Z,359.00
2024-02-17T06:34:16.966Z,360.00
2024-02-17T06:35:13.906Z,359.00
2024-02-17T06:36:13.664Z,360.00
2024-02-17T06:37:36.369Z,360.00
2024-02-17T06:38:20.301Z,360.00
2024-02-17T06:39:19.202Z,356.00
2024-02-17T06:40:17.085Z,358.00
2024-02-17T06:41:18.004Z,357.00
2024-02-17T06:42:19.920Z,355.00
2024-02-17T06:43:19.887Z,359.00
2024-02-17T06:44:20.814Z,357.00
2024-02-17T06:45:21.736Z,358.00
2024-02-17T06:46:23.414Z,357.00
2024-02-17T06:47:24.882Z,357.00
2024-02-17T06:48:24.487Z,359.00
2024-02-17T06:49:27.069Z,356.00
2024-02-17T06:50:26.163Z,354.00
2024-02-17T06:51:27.680Z,356.00
2024-02-17T06:52:28.387Z,358.00
2024-02-17T06:53:29.151Z,356.00
2024-02-17T06:54:29.418Z,354.00
2024-02-17T06:55:30.889Z,353.00
2024-02-17T06:56:30.864Z,352.00
2024-02-17T06:57:32.914Z,352.00
2024-02-17T06:58:31.796Z,356.00
2024-02-17T06:59:32.715Z,357.00
2024-02-17T07:00:34.436Z,358.00
2024-02-17T07:01:35.919Z,353.00
2024-02-17T07:02:36.389Z,353.00
2024-02-17T07:03:35.869Z,351.00
2024-02-17T07:04:37.662Z,350.00
2024-02-17T07:05:37.409Z,352.00
2024-02-17T07:06:38.437Z,353.00
2024-02-17T07:07:40.100Z,348.00
2024-02-17T07:08:39.997Z,350.00
2024-02-17T07:09:42.028Z,349.00
2024-02-17T07:10:43.468Z,350.00
2024-02-17T07:11:42.414Z,348.00
2024-02-17T07:12:43.423Z,348.00
2024-02-17T07:13:43.730Z,349.00
2024-02-17T07:14:44.649Z,349.00
2024-02-17T07:15:46.556Z,347.00
2024-02-17T07:16:46.486Z,346.00
2024-02-17T07:17:47.434Z,347.00
2024-02-17T07:18:48.458Z,350.00
2024-02-17T07:19:48.974Z,353.00
2024-02-17T07:20:53.300Z,352.00
2024-02-17T07:21:51.792Z,351.00
2024-02-17T07:22:52.423Z,353.00
2024-02-17T07:23:53.904Z,351.00
2024-02-17T07:24:53.242Z,353.00
2024-02-17T07:25:53.700Z,354.00
2024-02-17T07:26:54.180Z,356.00
2024-02-17T07:27:55.015Z,344.00
2024-02-17T07:28:56.370Z,345.00
2024-02-17T07:29:56.719Z,349.00
2024-02-17T07:30:57.673Z,346.00
2024-02-17T07:31:58.543Z,350.00
2024-02-17T07:33:02.467Z,348.00
2024-02-17T07:34:00.516Z,350.00
2024-02-17T07:35:03.020Z,353.00
2024-02-17T07:36:02.876Z,353.00
2024-02-17T07:37:02.736Z,356.00
2024-02-17T07:38:03.637Z,358.00
2024-02-17T07:39:05.380Z,358.00
2024-02-17T07:40:05.285Z,361.00
2024-02-17T07:41:06.198Z,357.00
2024-02-17T07:42:09.965Z,358.00
2024-02-17T07:43:07.890Z,359.00
2024-02-17T07:44:08.701Z,360.00
2024-02-17T07:45:09.755Z,364.00
2024-02-17T07:46:10.157Z,362.00
2024-02-17T07:47:10.930Z,363.00
2024-02-17T07:48:12.025Z,358.00
2024-02-17T07:49:13.686Z,352.00
2024-02-17T07:50:13.234Z,354.00
2024-02-17T07:51:14.430Z,356.00
2024-02-17T07:52:16.902Z,358.00
2024-02-17T07:53:14.722Z,356.00
2024-02-17T07:54:15.637Z,356.00
2024-02-17T07:55:16.578Z,354.00
2024-02-17T07:56:17.521Z,349.00
2024-02-17T07:57:20.409Z,354.00
2024-02-17T07:58:19.350Z,344.00
2024-02-17T07:59:20.280Z,348.00
2024-02-17T08:00:22.342Z,349.00
2024-02-17T08:01:21.853Z,352.00
2024-02-17T08:02:22.407Z,353.00
2024-02-17T08:03:23.372Z,354.00
2024-02-17T08:04:24.275Z,352.00
2024-02-17T08:05:25.980Z,352.00
2024-02-17T08:06:26.481Z,345.00
2024-02-17T08:07:26.477Z,348.00
2024-02-17T08:08:26.946Z,349.00
2024-02-17T08:09:28.393Z,351.00
2024-02-17T08:10:30.407Z,350.00
2024-02-17T08:11:29.357Z,354.00
2024-02-17T08:12:30.898Z,356.00
2024-02-17T08:13:32.386Z,356.00
2024-02-17T08:14:32.389Z,355.00
2024-02-17T08:15:33.406Z,359.00
2024-02-17T08:16:33.401Z,355.00
2024-02-17T08:17:33.797Z,350.00
2024-02-17T08:18:34.807Z,349.00
2024-02-17T08:19:35.298Z,350.00
2024-02-17T08:20:36.902Z,351.00
2024-02-17T08:21:37.405Z,351.00
2024-02-17T08:22:37.304Z,353.00
2024-02-17T08:23:38.194Z,349.00
2024-02-17T08:24:39.161Z,348.00
2024-02-17T08:25:40.042Z,352.00
2024-02-17T08:26:42.928Z,352.00
2024-02-17T08:27:41.872Z,350.00
2024-02-17T08:28:43.382Z,351.00
2024-02-17T08:29:43.288Z,351.00
2024-02-17T08:30:44.343Z,355.00
2024-02-17T08:31:44.803Z,344.00
2024-02-17T08:32:46.474Z,347.00
2024-02-17T08:33:46.601Z,350.00
2024-02-17T08:34:49.047Z,350.00
2024-02-17T08:35:47.984Z,349.00
2024-02-17T08:36:49.030Z,349.00
2024-02-17T08:37:49.469Z,348.00
2024-02-17T08:38:52.004Z,352.00
2024-02-17T08:39:50.939Z,355.00
2024-02-17T08:40:51.881Z,355.00
2024-02-17T08:41:52.789Z,354.00
2024-02-17T08:42:53.835Z,357.00
2024-02-17T08:43:54.230Z,361.00
2024-02-17T08:44:55.240Z,356.00
2024-02-17T08:45:56.452Z,357.00
2024-02-17T08:46:56.440Z,355.00
2024-02-17T08:47:57.922Z,359.00
2024-02-17T08:48:58.412Z,355.00
2024-02-17T08:50:01.184Z,353.00
2024-02-17T08:50:59.785Z,353.00
2024-02-17T08:52:00.713Z,352.00
2024-02-17T08:53:02.389Z,349.00
2024-02-17T08:54:02.307Z,346.00
2024-02-17T08:55:03.264Z,346.00
2024-02-17T08:56:04.160Z,350.00
2024-02-17T08:57:05.895Z,349.00
2024-02-17T08:58:07.396Z,349.00
2024-02-17T08:59:06.441Z,348.00
2024-02-17T09:00:08.948Z,351.00
2024-02-17T09:01:07.904Z,348.00
2024-02-17T09:02:09.432Z,350.00
2024-02-17T09:03:10.941Z,351.00
2024-02-17T09:04:09.957Z,350.00
2024-02-17T09:05:10.392Z,351.00
2024-02-17T09:06:11.508Z,359.00
2024-02-17T09:07:12.004Z,361.00
2024-02-17T09:08:12.886Z,349.00
2024-02-17T09:09:13.858Z,347.00
2024-02-17T09:10:14.651Z,346.00
2024-02-17T09:11:17.142Z,346.00
2024-02-17T09:12:17.418Z,346.00
2024-02-17T09:13:17.236Z,346.00
2024-02-17T09:14:18.186Z,348.00
2024-02-17T09:15:19.161Z,351.00
2024-02-17T09:16:20.060Z,352.00
2024-02-17T09:17:20.970Z,342.00
2024-02-17T09:18:22.039Z,340.00
2024-02-17T09:19:22.629Z,344.00
2024-02-17T09:20:23.069Z,344.00
2024-02-17T09:21:24.488Z,345.00
2024-02-17T09:22:24.388Z,346.00
2024-02-17T09:23:25.341Z,348.00
2024-02-17T09:24:26.286Z,346.00
2024-02-17T09:25:27.177Z,336.00
2024-02-17T09:26:28.106Z,348.00
2024-02-17T09:27:30.067Z,350.00
2024-02-17T09:28:32.888Z,350.00
2024-02-17T09:29:30.808Z,345.00
2024-02-17T09:30:32.423Z,346.00
2024-02-17T09:31:35.363Z,351.00
2024-02-17T09:32:33.064Z,344.00
2024-02-17T09:33:35.008Z,345.00
2024-02-17T09:34:34.596Z,345.00
2024-02-17T09:35:35.020Z,349.00
2024-02-17T09:36:36.960Z,352.00
2024-02-17T09:37:36.916Z,351.00
2024-02-17T09:38:37.846Z,349.00
2024-02-17T09:39:39.527Z,350.00
2024-02-17T09:40:41.430Z,349.00
2024-02-17T09:41:42.893Z,349.00
2024-02-17T09:42:41.309Z,348.00
2024-02-17T09:43:43.786Z,352.00
2024-02-17T09:44:42.769Z,348.00
2024-02-17T09:45:43.723Z,348.00
2024-02-17T09:46:44.673Z,345.00
2024-02-17T09:47:45.589Z,345.00
2024-02-17T09:48:46.737Z,346.00
2024-02-17T09:49:48.022Z,349.00
2024-02-17T09:50:47.987Z,350.00
2024-02-17T09:51:49.024Z,343.00
2024-02-17T09:52:50.412Z,349.00
2024-02-17T09:53:50.300Z,356.00
2024-02-17T09:54:51.984Z,350.00
2024-02-17T09:55:51.935Z,350.00
2024-02-17T09:56:53.439Z,353.00
2024-02-17T09:57:55.645Z,347.00
2024-02-17T09:58:53.903Z,347.00
2024-02-17T09:59:54.870Z,352.00
2024-02-17T10:00:55.870Z,345.00
2024-02-17T10:01:56.897Z,346.00
2024-02-17T10:02:57.326Z,347.00
2024-02-17T10:03:58.322Z,346.00
2024-02-17T10:04:59.228Z,345.00
2024-02-17T10:05:59.800Z,348.00
2024-02-17T10:07:01.622Z,348.00
2024-02-17T10:08:01.620Z,346.00
2024-02-17T10:09:02.594Z,344.00
2024-02-17T10:10:03.899Z,342.00
2024-02-17T10:11:03.811Z,342.00
2024-02-17T10:12:04.776Z,350.00
2024-02-17T10:13:07.427Z,346.00
2024-02-17T10:14:06.358Z,349.00
2024-02-17T10:15:07.294Z,351.00
2024-02-17T10:16:08.255Z,344.00
2024-02-17T10:17:09.162Z,340.00
2024-02-17T10:18:10.166Z,338.00
2024-02-17T10:19:10.941Z,340.00
2024-02-17T10:20:11.487Z,341.00
2024-02-17T10:21:12.940Z,347.00
2024-02-17T10:22:12.864Z,346.00
2024-02-17T10:23:13.789Z,345.00
2024-02-17T10:24:14.752Z,347.00
2024-02-17T10:25:15.681Z,349.00
2024-02-17T10:26:17.436Z,351.00
2024-02-17T10:27:17.386Z,349.00
2024-02-17T10:28:18.289Z,347.00
2024-02-17T10:29:19.202Z,350.00
2024-02-17T10:30:41.184Z,349.00
2024-02-17T10:31:20.826Z,352.00
2024-02-17T10:32:22.434Z,351.00
2024-02-17T10:33:23.015Z,351.00
2024-02-17T10:34:24.072Z,351.00
2024-02-17T10:35:24.040Z,353.00
2024-02-17T10:36:25.126Z,355.00
2024-02-17T10:37:25.596Z,357.00
2024-02-17T10:38:26.515Z,353.00
2024-02-17T10:39:27.443Z,354.00
2024-02-17T10:40:28.353Z,354.00
2024-02-17T10:41:29.235Z,351.00
2024-02-17T10:42:30.212Z,352.00
2024-02-17T10:43:31.120Z,354.00
2024-02-17T10:44:32.912Z,355.00
2024-02-17T10:45:32.934Z,353.00
2024-02-17T10:46:33.445Z,349.00
2024-02-17T10:47:34.371Z,352.00
2024-02-17T10:48:35.374Z,352.00
2024-02-17T10:49:35.863Z,353.00
2024-02-17T10:50:36.327Z,347.00
2024-02-17T10:51:37.981Z,345.00
2024-02-17T10:52:39.495Z,350.00
2024-02-17T10:53:38.364Z,348.00
2024-02-17T10:54:39.505Z,345.00
2024-02-17T10:55:39.964Z,346.00
2024-02-17T10:56:41.440Z,351.00
2024-02-17T10:57:41.884Z,348.00
2024-02-17T10:58:42.759Z,348.00
2024-02-17T10:59:43.663Z,348.00
2024-02-17T11:00:44.811Z,353.00
2024-02-17T11:01:45.354Z,342.00
2024-02-17T11:02:46.254Z,346.00
2024-02-17T11:03:47.231Z,347.00
2024-02-17T11:04:48.136Z,345.00
2024-02-17T11:05:49.187Z,345.00
2024-02-17T11:06:49.981Z,345.00
2024-02-17T11:07:50.457Z,345.00
2024-02-17T11:08:51.929Z,345.00
2024-02-17T11:09:52.362Z,346.00
2024-02-17T11:10:53.267Z,347.00
2024-02-17T11:11:54.172Z,350.00
2024-02-17T11:12:56.038Z,350.00
2024-02-17T11:13:57.449Z,361.00
2024-02-17T11:14:56.353Z,349.00
2024-02-17T11:15:57.425Z,346.00
2024-02-17T11:16:59.430Z,352.00
2024-02-17T11:17:58.477Z,354.00
2024-02-17T11:18:59.991Z,357.00
2024-02-17T11:19:59.677Z,357.00
2024-02-17T11:21:00.975Z,357.00
2024-02-17T11:22:03.487Z,358.00
2024-02-17T11:23:23.950Z,358.00
2024-02-17T11:24:02.804Z,351.00
2024-02-17T11:25:03.808Z,355.00
2024-02-17T11:26:07.456Z,345.00
2024-02-17T11:27:05.367Z,351.00
2024-02-17T11:28:06.307Z,355.00
2024-02-17T11:29:06.886Z,359.00
2024-02-17T11:30:09.458Z,364.00
2024-02-17T11:31:10.012Z,356.00
2024-02-17T11:32:10.506Z,362.00
2024-02-17T11:33:09.494Z,364.00
2024-02-17T11:34:12.631Z,365.00
2024-02-17T11:35:13.622Z,360.00
2024-02-17T11:36:12.184Z,354.00
2024-02-17T11:37:14.030Z,355.00
2024-02-17T11:38:13.932Z,357.00
2024-02-17T11:39:14.039Z,357.00
2024-02-17T11:40:14.470Z,357.00
2024-02-17T11:41:20.009Z,353.00
2024-02-17T11:42:19.031Z,350.00
2024-02-17T11:43:17.878Z,354.00
2024-02-17T11:44:17.600Z,358.00
2024-02-17T11:45:20.472Z,352.00
2024-02-17T11:46:20.963Z,351.00
2024-02-17T11:47:20.970Z,353.00
2024-02-17T11:48:24.074Z,353.00
2024-02-17T11:49:22.647Z,356.00
2024-02-17T11:50:23.952Z,353.00
2024-02-17T11:51:28.430Z,354.00
2024-02-17T11:52:26.971Z,350.00
2024-02-17T11:53:27.464Z,352.00
2024-02-17T11:54:28.002Z,351.00
2024-02-17T11:55:27.961Z,354.00
2024-02-17T11:56:29.458Z,354.00
2024-02-17T11:57:31.001Z,352.00
2024-02-17T11:58:31.008Z,348.00
2024-02-17T11:59:30.972Z,353.00
2024-02-17T12:00:31.982Z,355.00
2024-02-17T12:01:32.985Z,356.00
2024-02-17T12:02:37.969Z,355.00
2024-02-17T12:03:33.013Z,360.00
2024-02-17T12:04:33.989Z,360.00
2024-02-17T12:05:32.888Z,360.00
2024-02-17T12:06:35.505Z,358.00
2024-02-17T12:07:42.466Z,356.00
2024-02-17T12:08:35.331Z,359.00
2024-02-17T12:09:38.115Z,355.00
2024-02-17T12:10:37.012Z,356.00
2024-02-17T12:11:37.671Z,355.00
2024-02-17T12:12:38.277Z,356.00
2024-02-17T12:13:38.716Z,358.00
2024-02-17T12:14:39.621Z,354.00
2024-02-17T12:15:40.585Z,352.00
2024-02-17T12:16:41.490Z,373.00
2024-02-17T12:17:42.958Z,369.00
2024-02-17T12:18:43.452Z,360.00
2024-02-17T12:19:44.567Z,350.00
2024-02-17T12:20:46.254Z,353.00
2024-02-17T12:21:45.981Z,356.00
2024-02-17T12:22:45.964Z,359.00
2024-02-17T12:23:46.904Z,353.00
2024-02-17T12:24:47.883Z,357.00
2024-02-17T12:25:48.831Z,356.00
2024-02-17T12:26:49.765Z,358.00
2024-02-17T12:27:50.868Z,357.00
2024-02-17T12:28:51.291Z,358.00
2024-02-17T12:29:52.937Z,362.00
2024-02-17T12:30:52.941Z,348.00
2024-02-17T12:31:53.816Z,347.00
2024-02-17T12:32:54.753Z,357.00
2024-02-17T12:33:55.958Z,372.00
2024-02-17T12:34:56.706Z,362.00
2024-02-17T12:35:57.482Z,363.00
2024-02-17T12:36:58.036Z,370.00
2024-02-17T12:37:58.476Z,373.00
2024-02-17T12:38:59.434Z,371.00